Time;durP1;ratioP1;P1;durP2;ratioP2;P2;SDS_P1;SDS_P2;PMS_P1;PMS_P2;Temp;Humidity;BMP_temperature;BMP_pressure;BME280_temperature;BME280_humidity;BME280_pressure;Samples;Min_cycle;Max_cycle;Signal;HPM_P1;HPM_P2
2023/12/08 00:01:53;;;;;;;22.88;14.10;;;;;;;;;;5017529;28;97896;-65
2023/12/08 00:04:19;;;;;;;21.45;13.88;;;;;;;;;;5017192;28;98875;-65
2023/12/08 00:06:46;;;;;;;21.77;13.05;;;;;;;;;;5019875;28;100641;-65
2023/12/08 00:09:13;;;;;;;24.48;13.50;;;;;;;;;;5018439;27;99329;-64
2023/12/08 00:11:40;;;;;;;25.27;15.52;;;;;;;;;;5018801;28;100495;-65
2023/12/08 00:14:06;;;;;;;23.75;14.18;;;;;;;;;;5017787;27;98581;-65
2023/12/08 00:16:33;;;;;;;26.27;14.30;;;;;;;;;;5016528;28;99252;-65
2023/12/08 00:18:59;;;;;;;23.45;15.05;;;;;;;;;;5014933;28;100593;-65
2023/12/08 00:21:26;;;;;;;24.55;15.27;;;;;;;;;;5007509;27;98530;-65
2023/12/08 00:23:52;;;;;;;22.17;14.77;;;;;;;;;;5015801;27;99429;-65
2023/12/08 00:26:19;;;;;;;25.73;14.75;;;;;;;;;;5015345;28;98983;-65
2023/12/08 00:28:45;;;;;;;23.65;15.30;;;;;;;;;;5016205;28;98597;-65
2023/12/08 00:31:12;;;;;;;27.40;15.18;;;;;;;;;;5018405;28;99058;-65
2023/12/08 00:33:38;;;;;;;25.60;14.85;;;;;;;;;;5015641;27;99584;-63
2023/12/08 00:36:15;;;;;;;29.15;15.50;;;;;;;;;;5016146;27;99938;-63
2023/12/08 00:38:42;;;;;;;28.27;15.75;;;;;;;;;;5013309;27;99619;-63
2023/12/08 00:41:09;;;;;;;24.17;14.77;;;;;;;;;;5013708;28;101913;-63
2023/12/08 00:43:36;;;;;;;26.75;15.82;;;;;;;;;;5014554;28;100258;-63
2023/12/08 00:46:03;;;;;;;25.35;15.55;;;;;;;;;;5012867;28;99491;-63
2023/12/08 00:48:30;;;;;;;24.75;15.73;;;;;;;;;;5018025;27;98539;-63
2023/12/08 00:50:56;;;;;;;24.42;15.10;;;;;;;;;;5013086;28;99218;-63
2023/12/08 00:53:23;;;;;;;26.73;17.05;;;;;;;;;;5019140;28;99240;-63
2023/12/08 00:55:49;;;;;;;25.05;16.23;;;;;;;;;;5019251;28;99084;-64
2023/12/08 00:58:15;;;;;;;23.88;15.02;;;;;;;;;;5009946;27;100195;-63
2023/12/08 01:00:42;;;;;;;23.73;14.48;;;;;;;;;;5017009;28;98679;-64
2023/12/08 01:03:08;;;;;;;30.00;15.50;;;;;;;;;;5014920;27;100786;-61
2023/12/08 01:05:35;;;;;;;24.48;14.90;;;;;;;;;;5012398;28;101541;-63
2023/12/08 01:08:01;;;;;;;25.52;14.13;;;;;;;;;;5018449;27;98635;-63
2023/12/08 01:10:27;;;;;;;21.75;14.15;;;;;;;;;;5014205;28;100297;-63
2023/12/08 01:12:54;;;;;;;26.77;16.05;;;;;;;;;;5015163;28;100551;-63
2023/12/08 01:15:20;;;;;;;25.52;14.73;;;;;;;;;;5014029;28;97943;-62
2023/12/08 01:17:46;;;;;;;25.17;15.38;;;;;;;;;;5011633;28;100040;-61
2023/12/08 01:20:13;;;;;;;22.52;14.63;;;;;;;;;;5015601;28;99229;-61
2023/12/08 01:22:39;;;;;;;25.92;15.10;;;;;;;;;;5013863;27;99341;-61
2023/12/08 01:25:06;;;;;;;27.98;15.13;;;;;;;;;;5017663;28;99500;-62
2023/12/08 01:27:32;;;;;;;23.85;15.15;;;;;;;;;;5014135;28;99024;-61
2023/12/08 01:29:59;;;;;;;26.17;14.30;;;;;;;;;;5013963;28;99644;-61
2023/12/08 01:32:25;;;;;;;23.55;14.75;;;;;;;;;;5018426;27;100404;-61
2023/12/08 01:34:52;;;;;;;22.60;14.57;;;;;;;;;;5010181;28;98508;-64
2023/12/08 01:37:18;;;;;;;21.60;14.60;;;;;;;;;;5019739;28;98479;-64
2023/12/08 01:39:46;;;;;;;25.83;15.57;;;;;;;;;;5014799;27;97786;-63
2023/12/08 01:42:14;;;;;;;23.65;14.57;;;;;;;;;;5013558;28;98592;-62
2023/12/08 01:44:40;;;;;;;25.45;14.13;;;;;;;;;;5010576;27;100415;-62
2023/12/08 01:47:07;;;;;;;22.60;14.68;;;;;;;;;;5006575;28;99601;-62
2023/12/08 01:49:34;;;;;;;23.27;14.50;;;;;;;;;;5014493;27;99913;-62
2023/12/08 01:52:01;;;;;;;25.77;14.27;;;;;;;;;;5011050;27;99503;-62
2023/12/08 01:54:28;;;;;;;28.52;14.48;;;;;;;;;;5015574;27;98792;-62
2023/12/08 01:56:55;;;;;;;23.10;14.95;;;;;;;;;;5020438;28;99636;-62
2023/12/08 01:59:21;;;;;;;24.58;14.85;;;;;;;;;;5009633;28;100169;-62
2023/12/08 02:01:48;;;;;;;24.05;14.25;;;;;;;;;;5019451;28;99236;-62
2023/12/08 02:04:14;;;;;;;23.55;13.77;;;;;;;;;;5022084;28;99629;-62
2023/12/08 02:06:41;;;;;;;23.50;14.02;;;;;;;;;;5016822;27;98520;-63
2023/12/08 02:09:07;;;;;;;20.20;13.07;;;;;;;;;;5017542;28;99237;-62
2023/12/08 02:11:34;;;;;;;24.17;14.07;;;;;;;;;;5017298;28;100199;-62
2023/12/08 02:14:03;;;;;;;21.75;14.07;;;;;;;;;;5021490;27;98615;-62
2023/12/08 02:16:32;;;;;;;25.15;14.63;;;;;;;;;;5017006;28;100780;-62
2023/12/08 02:18:58;;;;;;;21.73;13.60;;;;;;;;;;5024631;27;99406;-62
2023/12/08 02:21:25;;;;;;;23.95;14.13;;;;;;;;;;5016620;28;99081;-62
2023/12/08 02:23:52;;;;;;;22.38;14.07;;;;;;;;;;5016545;28;100492;-62
2023/12/08 02:26:19;;;;;;;21.00;12.50;;;;;;;;;;5017051;27;98891;-62
2023/12/08 02:28:45;;;;;;;22.15;13.93;;;;;;;;;;5018587;28;99202;-62
2023/12/08 02:31:14;;;;;;;23.33;13.55;;;;;;;;;;5020168;27;99449;-62
2023/12/08 02:33:43;;;;;;;21.73;13.30;;;;;;;;;;5017553;28;98922;-62
2023/12/08 02:36:10;;;;;;;22.40;13.63;;;;;;;;;;5016934;27;99334;-62
2023/12/08 02:38:37;;;;;;;23.48;13.57;;;;;;;;;;5017483;28;100458;-62
2023/12/08 02:41:03;;;;;;;20.88;12.85;;;;;;;;;;5022799;28;98654;-62
2023/12/08 02:43:30;;;;;;;23.00;14.20;;;;;;;;;;5016709;27;100037;-62
2023/12/08 02:45:56;;;;;;;23.45;14.05;;;;;;;;;;5017082;27;98690;-62
2023/12/08 02:48:22;;;;;;;22.25;13.93;;;;;;;;;;5017577;28;99267;-62
2023/12/08 02:50:49;;;;;;;23.73;14.00;;;;;;;;;;5013033;28;99655;-62
2023/12/08 02:53:16;;;;;;;23.77;13.77;;;;;;;;;;5016572;28;97791;-63
2023/12/08 02:55:42;;;;;;;20.73;12.98;;;;;;;;;;5017338;27;99849;-64
2023/12/08 02:58:08;;;;;;;19.70;12.90;;;;;;;;;;5016437;27;99438;-64
2023/12/08 03:00:35;;;;;;;22.58;12.90;;;;;;;;;;5017237;27;99334;-64
2023/12/08 03:03:01;;;;;;;23.10;12.75;;;;;;;;;;5023508;27;100005;-64
2023/12/08 03:05:28;;;;;;;20.90;13.80;;;;;;;;;;5017141;28;99099;-64
2023/12/08 03:07:54;;;;;;;22.38;13.38;;;;;;;;;;5011318;28;101195;-64
2023/12/08 03:10:20;;;;;;;22.42;13.90;;;;;;;;;;5016338;27;99475;-67
2023/12/08 03:12:47;;;;;;;20.77;12.80;;;;;;;;;;5019729;28;98652;-64
2023/12/08 03:15:13;;;;;;;26.00;14.35;;;;;;;;;;5017314;27;100250;-64
2023/12/08 03:17:39;;;;;;;28.80;14.80;;;;;;;;;;5017992;28;98818;-64
2023/12/08 03:20:06;;;;;;;21.83;13.32;;;;;;;;;;5018145;27;99788;-64
2023/12/08 03:22:32;;;;;;;20.75;12.77;;;;;;;;;;5013490;28;99203;-64
2023/12/08 03:24:59;;;;;;;19.40;12.25;;;;;;;;;;5016575;27;101180;-64
2023/12/08 03:27:25;;;;;;;20.33;12.88;;;;;;;;;;5017603;28;101133;-64
2023/12/08 03:29:52;;;;;;;19.75;12.73;;;;;;;;;;5015541;28;98554;-64
2023/12/08 03:32:18;;;;;;;19.05;12.65;;;;;;;;;;5012383;28;98593;-64
2023/12/08 03:34:45;;;;;;;18.88;12.38;;;;;;;;;;5017158;27;99300;-64
2023/12/08 03:37:11;;;;;;;19.90;12.52;;;;;;;;;;5013060;28;99487;-64
2023/12/08 03:39:37;;;;;;;21.75;13.23;;;;;;;;;;5018013;28;98613;-64
2023/12/08 03:42:04;;;;;;;20.08;13.38;;;;;;;;;;5017098;27;100373;-64
2023/12/08 03:44:30;;;;;;;21.88;13.23;;;;;;;;;;5019865;28;99448;-64
2023/12/08 03:46:57;;;;;;;20.27;13.02;;;;;;;;;;5017703;28;98488;-64
2023/12/08 03:49:23;;;;;;;23.20;12.98;;;;;;;;;;5010268;28;100204;-64
2023/12/08 03:51:50;;;;;;;20.25;12.35;;;;;;;;;;5016881;28;98569;-64
2023/12/08 03:54:16;;;;;;;21.33;13.02;;;;;;;;;;5018221;27;98893;-64
2023/12/08 03:56:42;;;;;;;20.02;13.88;;;;;;;;;;5014112;28;99129;-64
2023/12/08 03:59:09;;;;;;;24.30;13.88;;;;;;;;;;5014200;28;98581;-64
2023/12/08 04:01:35;;;;;;;21.80;13.90;;;;;;;;;;5016633;28;99180;-64
2023/12/08 04:04:02;;;;;;;22.17;14.60;;;;;;;;;;5016074;27;100466;-64
2023/12/08 04:06:28;;;;;;;26.35;14.25;;;;;;;;;;5017644;28;97802;-64
2023/12/08 04:08:55;;;;;;;20.17;12.88;;;;;;;;;;5017170;28;100438;-64
2023/12/08 04:11:21;;;;;;;21.30;13.98;;;;;;;;;;5009426;27;101655;-64
2023/12/08 04:13:47;;;;;;;23.65;13.93;;;;;;;;;;5014039;28;99338;-64
2023/12/08 04:16:14;;;;;;;23.98;13.38;;;;;;;;;;5016097;28;100512;-64
2023/12/08 04:18:40;;;;;;;20.33;13.30;;;;;;;;;;5012185;27;98600;-64
2023/12/08 04:21:07;;;;;;;21.23;13.63;;;;;;;;;;5019052;27;100631;-64
2023/12/08 04:23:33;;;;;;;23.25;15.07;;;;;;;;;;5011642;28;99504;-64
2023/12/08 04:26:00;;;;;;;24.45;14.10;;;;;;;;;;5016088;27;99292;-64
2023/12/08 04:28:26;;;;;;;24.63;14.25;;;;;;;;;;5016920;27;99149;-64
2023/12/08 04:30:53;;;;;;;25.40;14.18;;;;;;;;;;5016110;28;98986;-64
2023/12/08 04:33:19;;;;;;;24.60;15.02;;;;;;;;;;5015919;27;99587;-64
2023/12/08 04:35:46;;;;;;;24.48;15.48;;;;;;;;;;5011039;28;99471;-64
2023/12/08 04:38:12;;;;;;;22.10;14.57;;;;;;;;;;5012317;27;99594;-64
2023/12/08 04:40:39;;;;;;;25.90;14.63;;;;;;;;;;5010883;28;99904;-64
2023/12/08 04:43:05;;;;;;;23.80;13.95;;;;;;;;;;5016293;28;98370;-64
2023/12/08 04:45:31;;;;;;;24.08;14.57;;;;;;;;;;5011512;27;98500;-64
2023/12/08 04:47:58;;;;;;;24.60;14.60;;;;;;;;;;5013281;28;99190;-64
2023/12/08 04:50:25;;;;;;;24.30;14.82;;;;;;;;;;5016633;27;99189;-64
2023/12/08 04:52:51;;;;;;;24.80;14.52;;;;;;;;;;5011869;27;99392;-64
2023/12/08 04:55:18;;;;;;;19.65;13.93;;;;;;;;;;5006441;28;98845;-64
2023/12/08 04:57:44;;;;;;;23.55;14.88;;;;;;;;;;5013313;28;98821;-64
2023/12/08 05:00:11;;;;;;;22.98;14.30;;;;;;;;;;5014163;27;99248;-64
2023/12/08 05:02:37;;;;;;;22.75;13.98;;;;;;;;;;5013915;28;100157;-64
2023/12/08 05:05:04;;;;;;;22.27;14.40;;;;;;;;;;5015947;28;98473;-64
2023/12/08 05:07:30;;;;;;;24.48;14.88;;;;;;;;;;5012668;28;99337;-63
2023/12/08 05:09:57;;;;;;;25.90;15.05;;;;;;;;;;5017772;28;99343;-64
2023/12/08 05:12:23;;;;;;;28.60;15.73;;;;;;;;;;5020624;28;98998;-64
2023/12/08 05:14:50;;;;;;;23.02;16.05;;;;;;;;;;5016746;27;99453;-62
2023/12/08 05:17:17;;;;;;;23.75;15.07;;;;;;;;;;5010231;28;98612;-62
2023/12/08 05:19:43;;;;;;;23.15;13.73;;;;;;;;;;5015989;28;99204;-62
2023/12/08 05:22:09;;;;;;;26.52;14.80;;;;;;;;;;5016009;28;99443;-62
2023/12/08 05:24:36;;;;;;;23.05;15.38;;;;;;;;;;5015219;27;99557;-62
2023/12/08 05:27:02;;;;;;;22.35;13.88;;;;;;;;;;5016759;27;99377;-62
2023/12/08 05:29:29;;;;;;;25.55;15.63;;;;;;;;;;5015130;27;99184;-62
2023/12/08 05:31:55;;;;;;;21.85;14.88;;;;;;;;;;5021814;28;98870;-62
2023/12/08 05:34:22;;;;;;;24.25;15.50;;;;;;;;;;5022532;28;99200;-62
2023/12/08 05:36:48;;;;;;;26.98;15.65;;;;;;;;;;5018217;28;98640;-62
2023/12/08 05:39:16;;;;;;;25.30;15.77;;;;;;;;;;5012309;27;99211;-62
2023/12/08 05:41:42;;;;;;;26.15;14.98;;;;;;;;;;5015984;28;98627;-62
2023/12/08 05:44:09;;;;;;;27.40;15.15;;;;;;;;;;5015135;28;97974;-62
2023/12/08 05:46:35;;;;;;;25.88;15.32;;;;;;;;;;5018718;27;99542;-62
2023/12/08 05:49:02;;;;;;;25.13;15.55;;;;;;;;;;5018410;27;100639;-62
2023/12/08 05:51:28;;;;;;;24.35;15.30;;;;;;;;;;5017387;27;99663;-62
2023/12/08 05:53:55;;;;;;;23.98;15.82;;;;;;;;;;5017300;27;101516;-62
2023/12/08 05:56:21;;;;;;;27.48;15.70;;;;;;;;;;5018711;28;98546;-62
2023/12/08 05:58:47;;;;;;;23.60;14.80;;;;;;;;;;5014330;28;99246;-62
2023/12/08 06:01:14;;;;;;;30.63;15.18;;;;;;;;;;5014442;28;99536;-61
2023/12/08 06:03:40;;;;;;;24.30;15.35;;;;;;;;;;5013184;27;98660;-62
2023/12/08 06:06:07;;;;;;;25.40;16.50;;;;;;;;;;5021965;27;100243;-63
2023/12/08 06:08:33;;;;;;;22.95;15.18;;;;;;;;;;5020469;28;98872;-62
2023/12/08 06:11:00;;;;;;;25.33;15.70;;;;;;;;;;5013278;28;98613;-62
2023/12/08 06:13:26;;;;;;;22.98;15.05;;;;;;;;;;5015940;28;99219;-62
2023/12/08 06:15:53;;;;;;;25.25;15.65;;;;;;;;;;5017543;27;100154;-62
2023/12/08 06:18:19;;;;;;;27.77;16.35;;;;;;;;;;5018152;28;99914;-62
2023/12/08 06:20:46;;;;;;;25.25;15.82;;;;;;;;;;5011827;28;100500;-62
2023/12/08 06:23:12;;;;;;;26.80;16.55;;;;;;;;;;5013877;28;100001;-62
2023/12/08 06:25:38;;;;;;;30.55;15.88;;;;;;;;;;5019393;28;99295;-64
2023/12/08 06:28:05;;;;;;;23.42;15.48;;;;;;;;;;5016586;28;100872;-64
2023/12/08 06:30:31;;;;;;;29.27;15.88;;;;;;;;;;5017297;27;98613;-64
2023/12/08 06:32:57;;;;;;;30.02;16.75;;;;;;;;;;5018362;28;99208;-64
2023/12/08 06:35:24;;;;;;;26.98;16.40;;;;;;;;;;5018698;28;100460;-64
2023/12/08 06:37:50;;;;;;;30.92;16.80;;;;;;;;;;5020037;28;99803;-63
2023/12/08 06:40:17;;;;;;;27.30;15.65;;;;;;;;;;5007566;28;102198;-63
2023/12/08 06:42:43;;;;;;;25.58;16.10;;;;;;;;;;5015559;27;98650;-63
2023/12/08 06:45:09;;;;;;;31.30;16.88;;;;;;;;;;5021500;27;99669;-63
2023/12/08 06:47:36;;;;;;;30.55;16.95;;;;;;;;;;5016610;27;99479;-63
2023/12/08 06:50:03;;;;;;;27.65;16.80;;;;;;;;;;5014042;28;98511;-63
2023/12/08 06:52:29;;;;;;;24.63;16.17;;;;;;;;;;5015964;28;99174;-64
2023/12/08 06:54:55;;;;;;;25.90;16.08;;;;;;;;;;5019104;28;99522;-63
2023/12/08 06:57:22;;;;;;;27.17;15.93;;;;;;;;;;5017529;28;97777;-64
2023/12/08 06:59:48;;;;;;;29.65;17.02;;;;;;;;;;5017499;28;99702;-64
2023/12/08 07:02:15;;;;;;;28.55;17.23;;;;;;;;;;5019035;27;98990;-64
2023/12/08 07:04:41;;;;;;;30.95;16.75;;;;;;;;;;5015961;27;100263;-64
2023/12/08 07:07:07;;;;;;;26.20;16.50;;;;;;;;;;5014587;27;100172;-64
2023/12/08 07:09:34;;;;;;;28.42;16.13;;;;;;;;;;5012574;28;98710;-64
2023/12/08 07:12:01;;;;;;;32.40;17.10;;;;;;;;;;5019634;28;99087;-64
2023/12/08 07:14:27;;;;;;;30.67;16.67;;;;;;;;;;5018321;27;99994;-64
2023/12/08 07:16:53;;;;;;;28.58;17.58;;;;;;;;;;5017991;27;98488;-64
2023/12/08 07:19:20;;;;;;;29.20;16.95;;;;;;;;;;5014858;27;99213;-64
2023/12/08 07:21:47;;;;;;;28.33;17.52;;;;;;;;;;5022094;28;99917;-64
2023/12/08 07:24:14;;;;;;;29.58;17.13;;;;;;;;;;5011529;27;100043;-64
2023/12/08 07:26:40;;;;;;;29.63;15.82;;;;;;;;;;5012567;27;100460;-64
2023/12/08 07:29:07;;;;;;;30.65;17.20;;;;;;;;;;5016244;28;99238;-64
2023/12/08 07:31:33;;;;;;;35.33;17.52;;;;;;;;;;5016908;28;99866;-64
2023/12/08 07:34:00;;;;;;;30.67;16.67;;;;;;;;;;5015920;27;99469;-63
2023/12/08 07:36:26;;;;;;;29.17;17.20;;;;;;;;;;5019103;28;98522;-63
2023/12/08 07:38:53;;;;;;;30.17;16.75;;;;;;;;;;5015594;27;99829;-62
2023/12/08 07:41:19;;;;;;;39.63;19.08;;;;;;;;;;5019772;28;100488;-62
2023/12/08 07:43:45;;;;;;;30.73;17.42;;;;;;;;;;5020129;27;98579;-63
2023/12/08 07:46:12;;;;;;;33.65;18.75;;;;;;;;;;5016748;27;98645;-62
2023/12/08 07:48:38;;;;;;;37.83;19.38;;;;;;;;;;5012583;27;98512;-62
2023/12/08 07:51:05;;;;;;;29.60;18.45;;;;;;;;;;5009938;28;100346;-62
2023/12/08 07:53:31;;;;;;;34.22;17.52;;;;;;;;;;5017728;28;100131;-62
2023/12/08 07:55:58;;;;;;;40.85;20.27;;;;;;;;;;5020027;28;98468;-62
2023/12/08 07:58:24;;;;;;;32.38;18.25;;;;;;;;;;5018151;28;100256;-62
2023/12/08 08:00:51;;;;;;;39.15;19.65;;;;;;;;;;5018748;27;99490;-62
2023/12/08 08:03:17;;;;;;;32.97;18.05;;;;;;;;;;5021364;28;98613;-62
2023/12/08 08:05:44;;;;;;;32.05;17.73;;;;;;;;;;5022853;27;99715;-62
2023/12/08 08:08:10;;;;;;;35.35;18.63;;;;;;;;;;5013105;28;98762;-63
2023/12/08 08:10:37;;;;;;;35.10;18.10;;;;;;;;;;5021104;27;100565;-62
2023/12/08 08:13:03;;;;;;;36.58;19.25;;;;;;;;;;5015852;28;99562;-62
2023/12/08 08:15:29;;;;;;;32.70;16.98;;;;;;;;;;5015203;28;98803;-62
2023/12/08 08:17:56;;;;;;;32.83;17.98;;;;;;;;;;5008351;27;99403;-62
2023/12/08 08:20:23;;;;;;;32.35;17.67;;;;;;;;;;5018164;28;100557;-62
2023/12/08 08:22:50;;;;;;;35.65;18.80;;;;;;;;;;5017210;28;98595;-62
2023/12/08 08:25:16;;;;;;;35.40;18.45;;;;;;;;;;5020036;28;99189;-62
2023/12/08 08:27:43;;;;;;;30.77;17.55;;;;;;;;;;5020442;28;98730;-62
2023/12/08 08:30:10;;;;;;;40.40;17.85;;;;;;;;;;5016314;28;99143;-63
2023/12/08 08:32:36;;;;;;;33.22;16.33;;;;;;;;;;5011062;28;99517;-63
2023/12/08 08:35:03;;;;;;;31.42;17.40;;;;;;;;;;5010384;27;98971;-62
2023/12/08 08:37:29;;;;;;;30.85;17.10;;;;;;;;;;5015634;28;99107;-62
2023/12/08 08:39:56;;;;;;;30.85;16.20;;;;;;;;;;5016438;27;99208;-63
2023/12/08 08:42:23;;;;;;;33.40;17.08;;;;;;;;;;5016979;28;99333;-64
2023/12/08 08:44:49;;;;;;;34.55;16.30;;;;;;;;;;5014371;27;100072;-73
2023/12/08 08:47:18;;;;;;;33.65;18.52;;;;;;;;;;5011110;27;101377;-64
2023/12/08 08:49:45;;;;;;;27.45;16.52;;;;;;;;;;5016355;28;99173;-64
2023/12/08 08:52:11;;;;;;;29.83;16.00;;;;;;;;;;5015498;27;99397;-64
2023/12/08 08:54:38;;;;;;;33.75;16.52;;;;;;;;;;5015951;28;98554;-63
2023/12/08 08:57:04;;;;;;;33.25;17.42;;;;;;;;;;5015421;27;99655;-63
2023/12/08 08:59:31;;;;;;;41.65;19.92;;;;;;;;;;5019611;27;98897;-62
2023/12/08 09:01:57;;;;;;;35.75;19.48;;;;;;;;;;5014824;27;98737;-63
2023/12/08 09:04:24;;;;;;;40.03;19.30;;;;;;;;;;5015063;27;99269;-62
2023/12/08 09:06:51;;;;;;;40.08;19.10;;;;;;;;;;5017066;28;101657;-62
2023/12/08 09:09:17;;;;;;;43.42;20.15;;;;;;;;;;5020204;28;98820;-63
2023/12/08 09:11:44;;;;;;;44.72;19.77;;;;;;;;;;5015576;28;100216;-62
2023/12/08 09:14:10;;;;;;;40.97;19.13;;;;;;;;;;5014941;28;98576;-63
2023/12/08 09:16:36;;;;;;;38.67;20.02;;;;;;;;;;5015220;27;99618;-62
2023/12/08 09:19:03;;;;;;;53.05;21.73;;;;;;;;;;5015107;28;99492;-63
2023/12/08 09:21:29;;;;;;;40.90;19.80;;;;;;;;;;5019183;27;99002;-63
2023/12/08 09:23:58;;;;;;;58.35;20.27;;;;;;;;;;5016023;27;99182;-62
2023/12/08 09:26:24;;;;;;;43.13;20.00;;;;;;;;;;5016377;27;99448;-62
2023/12/08 09:28:50;;;;;;;47.20;22.20;;;;;;;;;;5014254;27;98648;-62
2023/12/08 09:31:17;;;;;;;46.75;20.38;;;;;;;;;;5009572;28;99262;-62
2023/12/08 09:33:43;;;;;;;50.88;21.42;;;;;;;;;;5019445;27;98536;-62
2023/12/08 09:36:10;;;;;;;52.00;20.60;;;;;;;;;;5010947;28;98544;-62
2023/12/08 09:38:36;;;;;;;56.35;21.67;;;;;;;;;;5014317;28;99493;-62
2023/12/08 09:41:04;;;;;;;57.65;22.35;;;;;;;;;;5015235;28;98629;-63
2023/12/08 09:43:38;;;;;;;59.00;22.13;;;;;;;;;;5015611;28;99460;-62
2023/12/08 09:46:04;;;;;;;51.75;20.60;;;;;;;;;;5018385;28;99495;-63
2023/12/08 09:48:32;;;;;;;70.43;26.00;;;;;;;;;;5017248;27;97790;-62
2023/12/08 09:51:00;;;;;;;66.85;24.55;;;;;;;;;;5005159;28;101546;-64
2023/12/08 09:53:27;;;;;;;57.35;22.02;;;;;;;;;;5017980;28;99571;-62
2023/12/08 09:55:53;;;;;;;57.33;22.83;;;;;;;;;;5017049;27;99223;-65
2023/12/08 09:58:21;;;;;;;59.38;22.10;;;;;;;;;;5011248;28;99475;-65
2023/12/08 10:00:48;;;;;;;66.60;22.50;;;;;;;;;;5010346;27;98467;-65
2023/12/08 10:03:15;;;;;;;54.25;21.38;;;;;;;;;;5015104;28;100671;-65
2023/12/08 10:05:41;;;;;;;56.08;22.08;;;;;;;;;;5010096;28;100743;-65
2023/12/08 10:08:08;;;;;;;51.45;21.35;;;;;;;;;;5018347;28;98645;-65
2023/12/08 10:10:35;;;;;;;63.85;22.63;;;;;;;;;;5008280;28;99168;-66
2023/12/08 10:13:01;;;;;;;50.75;23.00;;;;;;;;;;5015588;28;98755;-67
2023/12/08 10:15:28;;;;;;;53.33;22.52;;;;;;;;;;5017689;27;99770;-66
2023/12/08 10:17:54;;;;;;;57.03;25.48;;;;;;;;;;5017278;28;100403;-66
2023/12/08 10:20:23;;;;;;;64.72;24.05;;;;;;;;;;5016056;28;99221;-66
2023/12/08 10:22:53;;;;;;;59.53;23.73;;;;;;;;;;5011279;28;101012;-65
2023/12/08 10:25:21;;;;;;;58.35;23.20;;;;;;;;;;5019558;27;99874;-66
2023/12/08 10:27:51;;;;;;;60.42;22.65;;;;;;;;;;5017805;28;98538;-67
2023/12/08 10:30:18;;;;;;;56.73;23.67;;;;;;;;;;5015627;28;99322;-67
2023/12/08 10:32:45;;;;;;;57.85;23.08;;;;;;;;;;5018554;27;99820;-67
2023/12/08 10:35:12;;;;;;;65.25;25.48;;;;;;;;;;5023435;27;98655;-67
2023/12/08 10:37:39;;;;;;;70.03;26.67;;;;;;;;;;5017513;27;98122;-68
2023/12/08 10:40:07;;;;;;;73.57;25.30;;;;;;;;;;5019989;28;98459;-68
2023/12/08 10:42:33;;;;;;;62.97;24.80;;;;;;;;;;5013206;28;99261;-69
2023/12/08 10:45:00;;;;;;;80.07;26.08;;;;;;;;;;5016457;28;100539;-66
2023/12/08 10:47:27;;;;;;;109.78;26.83;;;;;;;;;;5015502;28;98663;-66
2023/12/08 10:49:54;;;;;;;69.20;27.10;;;;;;;;;;5017507;27;99224;-66
2023/12/08 10:52:21;;;;;;;88.40;28.10;;;;;;;;;;5018084;28;99439;-67
2023/12/08 10:54:49;;;;;;;82.28;25.65;;;;;;;;;;5016607;27;100192;-67
2023/12/08 10:57:16;;;;;;;114.57;32.70;;;;;;;;;;5021303;28;100428;-66
2023/12/08 10:59:44;;;;;;;83.07;31.52;;;;;;;;;;5017399;28;98680;-67
2023/12/08 11:02:19;;;;;;;92.82;30.33;;;;;;;;;;5018145;28;98130;-66
2023/12/08 11:04:46;;;;;;;79.40;27.17;;;;;;;;;;5011221;28;100256;-68
2023/12/08 11:07:17;;;;;;;78.53;26.35;;;;;;;;;;5008859;27;98629;-66
2023/12/08 11:09:46;;;;;;;88.55;26.48;;;;;;;;;;5013332;28;99403;-66
2023/12/08 11:12:13;;;;;;;73.55;26.75;;;;;;;;;;5016710;28;99773;-66
2023/12/08 11:14:47;;;;;;;74.40;26.50;;;;;;;;;;5014664;28;100957;-66
2023/12/08 11:17:17;;;;;;;96.75;28.38;;;;;;;;;;5020979;28;100313;-68
2023/12/08 11:19:44;;;;;;;75.53;28.20;;;;;;;;;;5017601;27;99438;-66
2023/12/08 11:22:11;;;;;;;79.88;26.55;;;;;;;;;;5021071;28;99598;-66
2023/12/08 11:24:38;;;;;;;80.00;26.02;;;;;;;;;;5013671;27;100458;-66
2023/12/08 11:27:12;;;;;;;112.82;28.90;;;;;;;;;;5016151;27;97842;-67
2023/12/08 11:29:39;;;;;;;107.35;29.30;;;;;;;;;;5015319;28;98968;-66
2023/12/08 11:32:12;;;;;;;96.82;27.75;;;;;;;;;;5019607;28;99482;-66
2023/12/08 11:34:47;;;;;;;116.55;29.00;;;;;;;;;;5015676;27;99672;-66
2023/12/08 11:37:15;;;;;;;93.35;28.25;;;;;;;;;;5019948;28;100029;-71
2023/12/08 11:39:42;;;;;;;121.85;28.95;;;;;;;;;;5017173;27;99822;-67
2023/12/08 11:42:10;;;;;;;101.60;30.70;;;;;;;;;;5020929;28;98634;-67
2023/12/08 11:44:37;;;;;;;111.45;30.45;;;;;;;;;;5015893;27;99798;-67
2023/12/08 11:47:07;;;;;;;133.05;30.75;;;;;;;;;;5012727;28;98534;-69
2023/12/08 11:49:37;;;;;;;131.52;30.70;;;;;;;;;;5010636;28;99353;-66
2023/12/08 11:52:04;;;;;;;128.90;29.98;;;;;;;;;;5015152;28;99731;-65
2023/12/08 11:54:49;;;;;;;105.53;29.63;;;;;;;;;;5014009;28;98785;-66
2023/12/08 11:57:32;;;;;;;132.98;28.92;;;;;;;;;;5010427;28;100487;-66
2023/12/08 11:59:59;;;;;;;138.02;31.35;;;;;;;;;;5015689;28;100099;-66
2023/12/08 12:02:28;;;;;;;125.38;35.30;;;;;;;;;;5018994;27;98599;-66
2023/12/08 12:04:54;;;;;;;93.32;30.80;;;;;;;;;;5016504;28;100338;-67
2023/12/08 12:07:21;;;;;;;116.75;31.65;;;;;;;;;;5013338;27;98511;-67
2023/12/08 12:09:50;;;;;;;101.65;30.98;;;;;;;;;;5016997;28;99275;-67
2023/12/08 12:12:21;;;;;;;117.50;30.67;;;;;;;;;;5017028;27;99900;-67
2023/12/08 12:14:49;;;;;;;115.13;31.85;;;;;;;;;;5016797;27;98453;-66
2023/12/08 12:17:16;;;;;;;143.35;36.83;;;;;;;;;;5020165;28;100593;-66
2023/12/08 12:19:45;;;;;;;141.20;30.92;;;;;;;;;;5010891;28;101777;-66
2023/12/08 12:22:11;;;;;;;106.65;30.33;;;;;;;;;;5010809;28;98718;-66
2023/12/08 12:24:37;;;;;;;168.75;34.15;;;;;;;;;;5018695;28;99823;-66
2023/12/08 12:27:04;;;;;;;113.78;32.28;;;;;;;;;;5018019;28;98493;-66
2023/12/08 12:29:30;;;;;;;142.60;33.50;;;;;;;;;;5015715;28;100262;-66
2023/12/08 12:31:56;;;;;;;114.43;30.23;;;;;;;;;;5020351;27;100410;-66
2023/12/08 12:34:23;;;;;;;119.10;32.05;;;;;;;;;;5022055;27;98582;-67
2023/12/08 12:36:49;;;;;;;167.38;33.65;;;;;;;;;;5011970;28;99192;-67
2023/12/08 12:39:16;;;;;;;134.82;34.00;;;;;;;;;;5013467;27;99798;-67
2023/12/08 12:41:43;;;;;;;115.70;31.77;;;;;;;;;;5012262;28;97987;-66
2023/12/08 12:44:09;;;;;;;120.07;31.48;;;;;;;;;;5015562;28;99602;-66
2023/12/08 12:46:40;;;;;;;162.50;33.67;;;;;;;;;;5013093;28;99519;-66
2023/12/08 12:49:06;;;;;;;163.43;34.63;;;;;;;;;;5013929;28;99589;-66
2023/12/08 12:51:36;;;;;;;123.95;32.75;;;;;;;;;;5014935;28;99499;-67
2023/12/08 12:54:03;;;;;;;175.75;35.63;;;;;;;;;;5016239;28;98678;-66
2023/12/08 12:56:33;;;;;;;128.68;33.42;;;;;;;;;;5011912;28;100510;-66
2023/12/08 12:59:06;;;;;;;151.55;34.80;;;;;;;;;;5008369;28;99492;-66
2023/12/08 13:01:33;;;;;;;157.30;34.50;;;;;;;;;;5018070;27;98857;-66
2023/12/08 13:04:00;;;;;;;150.63;34.63;;;;;;;;;;5015510;28;99317;-67
2023/12/08 13:06:33;;;;;;;146.07;35.63;;;;;;;;;;5016188;28;98731;-66
2023/12/08 13:09:00;;;;;;;142.90;33.95;;;;;;;;;;5017575;27;98820;-66
2023/12/08 13:11:27;;;;;;;145.55;36.50;;;;;;;;;;5018112;28;100474;-67
2023/12/08 13:13:54;;;;;;;134.73;34.17;;;;;;;;;;5013947;27;99286;-66
2023/12/08 13:16:20;;;;;;;128.15;34.38;;;;;;;;;;5015086;27;99965;-66
2023/12/08 13:18:47;;;;;;;120.13;34.58;;;;;;;;;;5012044;28;99389;-67
2023/12/08 13:21:17;;;;;;;147.48;35.35;;;;;;;;;;5013857;27;98592;-66
2023/12/08 13:23:44;;;;;;;182.45;36.25;;;;;;;;;;5011506;28;98683;-67
2023/12/08 13:26:11;;;;;;;141.27;35.22;;;;;;;;;;5016731;28;99519;-66
2023/12/08 13:28:38;;;;;;;120.20;31.25;;;;;;;;;;5012677;27;98600;-67
2023/12/08 13:31:04;;;;;;;112.25;32.60;;;;;;;;;;5021966;27;99252;-67
2023/12/08 13:33:30;;;;;;;146.63;32.47;;;;;;;;;;5012773;28;98602;-66
2023/12/08 13:35:57;;;;;;;128.32;33.45;;;;;;;;;;5008963;27;100309;-67
2023/12/08 13:38:24;;;;;;;136.63;32.63;;;;;;;;;;5014260;28;101313;-66
2023/12/08 13:40:50;;;;;;;128.85;33.40;;;;;;;;;;5015096;28;98900;-67
2023/12/08 13:43:17;;;;;;;144.13;34.60;;;;;;;;;;5015046;28;99272;-67
2023/12/08 13:45:43;;;;;;;157.50;35.40;;;;;;;;;;5015285;28;99491;-66
2023/12/08 13:48:10;;;;;;;187.40;37.90;;;;;;;;;;5015459;28;98698;-67
2023/12/08 13:50:36;;;;;;;155.45;34.58;;;;;;;;;;5016523;28;100399;-67
2023/12/08 13:53:16;;;;;;;182.55;35.83;;;;;;;;;;5023587;28;99478;-67
2023/12/08 13:55:42;;;;;;;155.48;36.03;;;;;;;;;;5019533;27;99323;-66
2023/12/08 13:58:09;;;;;;;136.93;35.00;;;;;;;;;;5018827;28;99666;-66
2023/12/08 14:00:35;;;;;;;181.15;37.38;;;;;;;;;;5009697;28;99741;-66
2023/12/08 14:03:01;;;;;;;171.70;38.50;;;;;;;;;;5021932;27;99650;-66
2023/12/08 14:05:28;;;;;;;154.55;36.05;;;;;;;;;;5017825;28;100554;-66
2023/12/08 14:07:54;;;;;;;169.32;37.75;;;;;;;;;;5016963;27;98770;-67
2023/12/08 14:10:21;;;;;;;203.95;40.58;;;;;;;;;;5016321;27;100295;-68